sensor_id;sensor_type;location;lat;lon;timestamp;P1;durP1;ratioP1;P2;durP2;ratioP2
55710;SDS011;41612;51.994;5.880;2023-12-04T00:01:51;49.38;;;23.67;;
55710;SDS011;41612;51.994;5.880;2023-12-04T00:08:08;55.35;;;26.52;;
55710;SDS011;41612;51.994;5.880;2023-12-04T00:11:36;51.20;;;23.08;;
55710;SDS011;41612;51.994;5.880;2023-12-04T00:18:57;47.38;;;22.88;;
55710;SDS011;41612;51.994;5.880;2023-12-04T00:26:51;48.00;;;21.35;;
55710;SDS011;41612;51.994;5.880;2023-12-04T00:34:49;40.20;;;20.67;;
55710;SDS011;41612;51.994;5.880;2023-12-04T00:38:04;47.42;;;21.98;;
55710;SDS011;41612;51.994;5.880;2023-12-04T00:40:46;43.90;;;22.58;;
55710;SDS011;41612;51.994;5.880;2023-12-04T00:43:39;49.50;;;22.05;;
55710;SDS011;41612;51.994;5.880;2023-12-04T00:49:54;42.40;;;22.08;;
55710;SDS011;41612;51.994;5.880;2023-12-04T00:53:29;46.47;;;20.15;;
55710;SDS011;41612;51.994;5.880;2023-12-04T00:56:49;39.85;;;20.95;;
55710;SDS011;41612;51.994;5.880;2023-12-04T00:59:38;41.92;;;19.60;;
55710;SDS011;41612;51.994;5.880;2023-12-04T01:02:17;42.72;;;21.35;;
55710;SDS011;41612;51.994;5.880;2023-12-04T01:05:06;45.97;;;20.88;;
55710;SDS011;41612;51.994;5.880;2023-12-04T01:07:40;38.42;;;19.92;;
55710;SDS011;41612;51.994;5.880;2023-12-04T01:10:21;37.65;;;19.75;;
55710;SDS011;41612;51.994;5.880;2023-12-04T01:13:08;43.13;;;20.58;;
55710;SDS011;41612;51.994;5.880;2023-12-04T01:29:28;47.72;;;20.40;;
55710;SDS011;41612;51.994;5.880;2023-12-04T01:31:54;35.08;;;17.95;;
55710;SDS011;41612;51.994;5.880;2023-12-04T01:34:19;38.35;;;19.30;;
55710;SDS011;41612;51.994;5.880;2023-12-04T01:36:45;38.25;;;18.90;;
55710;SDS011;41612;51.994;5.880;2023-12-04T01:39:11;36.22;;;19.38;;
55710;SDS011;41612;51.994;5.880;2023-12-04T01:41:36;38.45;;;18.80;;
55710;SDS011;41612;51.994;5.880;2023-12-04T01:44:02;36.83;;;18.63;;
55710;SDS011;41612;51.994;5.880;2023-12-04T01:46:27;39.33;;;18.67;;
55710;SDS011;41612;51.994;5.880;2023-12-04T01:48:54;34.55;;;17.25;;
55710;SDS011;41612;51.994;5.880;2023-12-04T01:51:20;37.97;;;19.02;;
55710;SDS011;41612;51.994;5.880;2023-12-04T01:53:48;32.97;;;17.85;;
55710;SDS011;41612;51.994;5.880;2023-12-04T01:56:13;38.35;;;17.38;;
55710;SDS011;41612;51.994;5.880;2023-12-04T01:58:40;34.97;;;17.90;;
55710;SDS011;41612;51.994;5.880;2023-12-04T02:01:07;39.10;;;19.02;;
55710;SDS011;41612;51.994;5.880;2023-12-04T02:03:32;35.35;;;20.10;;
55710;SDS011;41612;51.994;5.880;2023-12-04T02:05:59;36.38;;;19.50;;
55710;SDS011;41612;51.994;5.880;2023-12-04T02:08:27;35.58;;;19.33;;
55710;SDS011;41612;51.994;5.880;2023-12-04T02:10:53;34.25;;;18.58;;
55710;SDS011;41612;51.994;5.880;2023-12-04T02:13:19;38.85;;;20.75;;
55710;SDS011;41612;51.994;5.880;2023-12-04T02:15:45;39.15;;;19.25;;
55710;SDS011;41612;51.994;5.880;2023-12-04T02:18:18;36.95;;;18.77;;
55710;SDS011;41612;51.994;5.880;2023-12-04T02:20:44;39.80;;;20.70;;
55710;SDS011;41612;51.994;5.880;2023-12-04T02:23:10;39.63;;;20.60;;
55710;SDS011;41612;51.994;5.880;2023-12-04T02:25:35;31.98;;;16.20;;
55710;SDS011;41612;51.994;5.880;2023-12-04T02:28:02;37.58;;;18.45;;
55710;SDS011;41612;51.994;5.880;2023-12-04T02:31:12;35.05;;;18.15;;
55710;SDS011;41612;51.994;5.880;2023-12-04T02:33:57;35.58;;;19.65;;
55710;SDS011;41612;51.994;5.880;2023-12-04T02:36:40;41.17;;;19.35;;
55710;SDS011;41612;51.994;5.880;2023-12-04T02:39:31;36.70;;;18.60;;
55710;SDS011;41612;51.994;5.880;2023-12-04T02:42:02;34.65;;;18.60;;
55710;SDS011;41612;51.994;5.880;2023-12-04T02:44:55;33.83;;;17.17;;
55710;SDS011;41612;51.994;5.880;2023-12-04T02:47:24;38.60;;;19.55;;
55710;SDS011;41612;51.994;5.880;2023-12-04T02:53:31;32.10;;;16.58;;
55710;SDS011;41612;51.994;5.880;2023-12-04T02:56:05;33.83;;;16.80;;
55710;SDS011;41612;51.994;5.880;2023-12-04T02:59:28;34.13;;;16.58;;
55710;SDS011;41612;51.994;5.880;2023-12-04T03:02:16;34.38;;;17.30;;
55710;SDS011;41612;51.994;5.880;2023-12-04T03:05:16;34.65;;;17.73;;
55710;SDS011;41612;51.994;5.880;2023-12-04T03:11:54;34.15;;;18.17;;
55710;SDS011;41612;51.994;5.880;2023-12-04T03:14:33;31.88;;;17.48;;
55710;SDS011;41612;51.994;5.880;2023-12-04T03:17:09;33.95;;;16.92;;
55710;SDS011;41612;51.994;5.880;2023-12-04T03:20:25;30.13;;;16.92;;
55710;SDS011;41612;51.994;5.880;2023-12-04T03:23:19;33.92;;;15.73;;
55710;SDS011;41612;51.994;5.880;2023-12-04T03:25:57;35.53;;;16.73;;
55710;SDS011;41612;51.994;5.880;2023-12-04T03:32:17;31.52;;;16.90;;
55710;SDS011;41612;51.994;5.880;2023-12-04T03:38:34;31.30;;;16.38;;
55710;SDS011;41612;51.994;5.880;2023-12-04T03:41:27;27.98;;;16.08;;
55710;SDS011;41612;51.994;5.880;2023-12-04T03:44:42;30.95;;;15.85;;
55710;SDS011;41612;51.994;5.880;2023-12-04T03:47:32;31.80;;;15.23;;
55710;SDS011;41612;51.994;5.880;2023-12-04T03:50:35;27.83;;;14.57;;
55710;SDS011;41612;51.994;5.880;2023-12-04T03:57:04;28.48;;;13.98;;
55710;SDS011;41612;51.994;5.880;2023-12-04T04:07:28;25.63;;;14.93;;
55710;SDS011;41612;51.994;5.880;2023-12-04T04:13:50;27.80;;;14.60;;
55710;SDS011;41612;51.994;5.880;2023-12-04T04:17:09;23.52;;;13.73;;
55710;SDS011;41612;51.994;5.880;2023-12-04T04:27:33;23.52;;;13.75;;
55710;SDS011;41612;51.994;5.880;2023-12-04T04:30:46;25.60;;;14.60;;
55710;SDS011;41612;51.994;5.880;2023-12-04T04:33:32;23.67;;;13.75;;
55710;SDS011;41612;51.994;5.880;2023-12-04T04:36:27;26.30;;;13.55;;
55710;SDS011;41612;51.994;5.880;2023-12-04T04:39:10;29.58;;;14.60;;
55710;SDS011;41612;51.994;5.880;2023-12-04T04:41:53;25.05;;;13.07;;
55710;SDS011;41612;51.994;5.880;2023-12-04T04:45:07;25.90;;;13.93;;
55710;SDS011;41612;51.994;5.880;2023-12-04T04:48:31;24.00;;;13.25;;
55710;SDS011;41612;51.994;5.880;2023-12-04T04:51:16;24.83;;;13.13;;
55710;SDS011;41612;51.994;5.880;2023-12-04T04:53:53;23.67;;;12.75;;
55710;SDS011;41612;51.994;5.880;2023-12-04T04:56:46;25.02;;;12.60;;
55710;SDS011;41612;51.994;5.880;2023-12-04T04:59:50;22.70;;;14.18;;
55710;SDS011;41612;51.994;5.880;2023-12-04T05:02:31;22.23;;;12.80;;
55710;SDS011;41612;51.994;5.880;2023-12-04T05:05:22;27.42;;;12.93;;
55710;SDS011;41612;51.994;5.880;2023-12-04T05:07:48;23.33;;;12.48;;
55710;SDS011;41612;51.994;5.880;2023-12-04T05:10:14;21.15;;;12.45;;
55710;SDS011;41612;51.994;5.880;2023-12-04T05:12:39;21.27;;;13.20;;
55710;SDS011;41612;51.994;5.880;2023-12-04T05:15:05;24.95;;;11.85;;
55710;SDS011;41612;51.994;5.880;2023-12-04T05:17:31;22.65;;;12.13;;
55710;SDS011;41612;51.994;5.880;2023-12-04T05:19:57;21.95;;;11.85;;
55710;SDS011;41612;51.994;5.880;2023-12-04T05:22:22;21.10;;;11.85;;
55710;SDS011;41612;51.994;5.880;2023-12-04T05:24:48;21.90;;;11.77;;
55710;SDS011;41612;51.994;5.880;2023-12-04T05:27:14;22.60;;;12.27;;
55710;SDS011;41612;51.994;5.880;2023-12-04T05:29:39;19.33;;;10.70;;
55710;SDS011;41612;51.994;5.880;2023-12-04T05:32:05;19.67;;;11.13;;
55710;SDS011;41612;51.994;5.880;2023-12-04T05:34:31;25.77;;;13.57;;
55710;SDS011;41612;51.994;5.880;2023-12-04T05:36:56;25.23;;;12.93;;
55710;SDS011;41612;51.994;5.880;2023-12-04T05:39:22;20.10;;;12.27;;
55710;SDS011;41612;51.994;5.880;2023-12-04T05:41:47;19.80;;;10.98;;
55710;SDS011;41612;51.994;5.880;2023-12-04T05:44:13;19.13;;;11.45;;
55710;SDS011;41612;51.994;5.880;2023-12-04T05:46:39;19.33;;;11.63;;
55710;SDS011;41612;51.994;5.880;2023-12-04T05:49:04;22.38;;;12.27;;
55710;SDS011;41612;51.994;5.880;2023-12-04T05:51:30;19.23;;;11.90;;
55710;SDS011;41612;51.994;5.880;2023-12-04T05:53:56;19.70;;;11.68;;
55710;SDS011;41612;51.994;5.880;2023-12-04T05:56:21;21.65;;;11.38;;
55710;SDS011;41612;51.994;5.880;2023-12-04T05:58:47;20.98;;;11.32;;
55710;SDS011;41612;51.994;5.880;2023-12-04T06:01:14;20.20;;;11.57;;
55710;SDS011;41612;51.994;5.880;2023-12-04T06:03:40;23.98;;;13.02;;
55710;SDS011;41612;51.994;5.880;2023-12-04T06:06:06;19.63;;;11.60;;
55710;SDS011;41612;51.994;5.880;2023-12-04T06:08:32;18.90;;;10.70;;
55710;SDS011;41612;51.994;5.880;2023-12-04T06:10:57;18.63;;;11.18;;
55710;SDS011;41612;51.994;5.880;2023-12-04T06:13:23;16.02;;;10.30;;
55710;SDS011;41612;51.994;5.880;2023-12-04T06:15:48;20.70;;;10.82;;
55710;SDS011;41612;51.994;5.880;2023-12-04T06:18:14;18.88;;;11.30;;
55710;SDS011;41612;51.994;5.880;2023-12-04T06:20:40;19.42;;;11.10;;
55710;SDS011;41612;51.994;5.880;2023-12-04T06:23:06;18.55;;;9.30;;
55710;SDS011;41612;51.994;5.880;2023-12-04T06:25:31;17.85;;;10.57;;
55710;SDS011;41612;51.994;5.880;2023-12-04T06:27:57;17.05;;;10.02;;
55710;SDS011;41612;51.994;5.880;2023-12-04T06:30:23;19.10;;;11.00;;
55710;SDS011;41612;51.994;5.880;2023-12-04T06:32:49;18.92;;;10.60;;
55710;SDS011;41612;51.994;5.880;2023-12-04T07:00:02;14.68;;;9.05;;
55710;SDS011;41612;51.994;5.880;2023-12-04T07:02:36;17.60;;;9.38;;
55710;SDS011;41612;51.994;5.880;2023-12-04T07:05:12;17.33;;;9.68;;
55710;SDS011;41612;51.994;5.880;2023-12-04T07:07:50;17.75;;;9.55;;
55710;SDS011;41612;51.994;5.880;2023-12-04T07:10:27;15.10;;;9.23;;
55710;SDS011;41612;51.994;5.880;2023-12-04T07:12:56;14.82;;;8.20;;
55710;SDS011;41612;51.994;5.880;2023-12-04T07:15:25;16.75;;;9.40;;
55710;SDS011;41612;51.994;5.880;2023-12-04T07:18:02;17.33;;;9.82;;
55710;SDS011;41612;51.994;5.880;2023-12-04T07:34:48;14.35;;;8.55;;
55710;SDS011;41612;51.994;5.880;2023-12-04T07:37:14;15.13;;;9.15;;
55710;SDS011;41612;51.994;5.880;2023-12-04T07:39:39;15.13;;;9.20;;
55710;SDS011;41612;51.994;5.880;2023-12-04T07:42:05;13.23;;;7.32;;
55710;SDS011;41612;51.994;5.880;2023-12-04T07:44:31;15.05;;;8.20;;
55710;SDS011;41612;51.994;5.880;2023-12-04T07:46:57;14.27;;;7.28;;
55710;SDS011;41612;51.994;5.880;2023-12-04T07:49:22;14.20;;;9.00;;
55710;SDS011;41612;51.994;5.880;2023-12-04T07:51:48;14.50;;;8.20;;
55710;SDS011;41612;51.994;5.880;2023-12-04T07:54:13;16.65;;;9.68;;
55710;SDS011;41612;51.994;5.880;2023-12-04T07:56:39;14.57;;;8.88;;
55710;SDS011;41612;51.994;5.880;2023-12-04T07:59:05;14.68;;;8.15;;
55710;SDS011;41612;51.994;5.880;2023-12-04T08:01:30;15.38;;;8.65;;
55710;SDS011;41612;51.994;5.880;2023-12-04T08:03:56;15.57;;;8.73;;
55710;SDS011;41612;51.994;5.880;2023-12-04T08:06:22;13.45;;;8.23;;
55710;SDS011;41612;51.994;5.880;2023-12-04T08:08:50;15.10;;;8.10;;
55710;SDS011;41612;51.994;5.880;2023-12-04T08:11:25;13.80;;;8.07;;
55710;SDS011;41612;51.994;5.880;2023-12-04T08:13:51;15.77;;;7.75;;
55710;SDS011;41612;51.994;5.880;2023-12-04T08:16:17;11.93;;;7.80;;
55710;SDS011;41612;51.994;5.880;2023-12-04T08:18:45;16.15;;;8.40;;
55710;SDS011;41612;51.994;5.880;2023-12-04T08:21:11;13.10;;;7.07;;
55710;SDS011;41612;51.994;5.880;2023-12-04T08:23:38;19.20;;;9.20;;
55710;SDS011;41612;51.994;5.880;2023-12-04T08:26:03;16.05;;;8.77;;
55710;SDS011;41612;51.994;5.880;2023-12-04T08:28:29;14.35;;;8.30;;
55710;SDS011;41612;51.994;5.880;2023-12-04T08:30:58;14.20;;;7.43;;
55710;SDS011;41612;51.994;5.880;2023-12-04T08:33:24;13.70;;;7.78;;
55710;SDS011;41612;51.994;5.880;2023-12-04T08:35:52;14.15;;;8.38;;
55710;SDS011;41612;51.994;5.880;2023-12-04T08:38:23;14.60;;;8.63;;
55710;SDS011;41612;51.994;5.880;2023-12-04T08:40:48;12.07;;;7.93;;
55710;SDS011;41612;51.994;5.880;2023-12-04T08:43:19;13.10;;;7.55;;
55710;SDS011;41612;51.994;5.880;2023-12-04T08:45:49;15.30;;;8.77;;
55710;SDS011;41612;51.994;5.880;2023-12-04T08:48:15;14.75;;;7.80;;
55710;SDS011;41612;51.994;5.880;2023-12-04T08:50:47;13.52;;;7.53;;
55710;SDS011;41612;51.994;5.880;2023-12-04T08:53:18;14.45;;;8.15;;
55710;SDS011;41612;51.994;5.880;2023-12-04T08:55:48;15.73;;;8.43;;
55710;SDS011;41612;51.994;5.880;2023-12-04T08:58:14;12.68;;;7.75;;
55710;SDS011;41612;51.994;5.880;2023-12-04T09:00:41;14.57;;;8.15;;
55710;SDS011;41612;51.994;5.880;2023-12-04T09:03:08;13.48;;;8.27;;
55710;SDS011;41612;51.994;5.880;2023-12-04T09:05:35;14.55;;;8.13;;
55710;SDS011;41612;51.994;5.880;2023-12-04T09:08:07;16.38;;;9.60;;
55710;SDS011;41612;51.994;5.880;2023-12-04T09:10:33;14.73;;;9.48;;
55710;SDS011;41612;51.994;5.880;2023-12-04T11:03:10;13.15;;;8.00;;
55710;SDS011;41612;51.994;5.880;2023-12-04T11:08:30;15.05;;;9.15;;
55710;SDS011;41612;51.994;5.880;2023-12-04T11:11:02;14.77;;;8.77;;
55710;SDS011;41612;51.994;5.880;2023-12-04T12:13:40;15.60;;;8.05;;
55710;SDS011;41612;51.994;5.880;2023-12-04T12:16:07;13.35;;;8.48;;
55710;SDS011;41612;51.994;5.880;2023-12-04T12:18:43;13.07;;;8.23;;
55710;SDS011;41612;51.994;5.880;2023-12-04T12:23:53;14.45;;;8.43;;
55710;SDS011;41612;51.994;5.880;2023-12-04T12:26:19;16.67;;;8.50;;
55710;SDS011;41612;51.994;5.880;2023-12-04T12:28:45;20.65;;;8.93;;
55710;SDS011;41612;51.994;5.880;2023-12-04T12:31:11;18.75;;;8.98;;
55710;SDS011;41612;51.994;5.880;2023-12-04T12:33:36;15.43;;;8.50;;
55710;SDS011;41612;51.994;5.880;2023-12-04T12:36:02;13.43;;;8.15;;
55710;SDS011;41612;51.994;5.880;2023-12-04T12:38:29;12.40;;;8.30;;
55710;SDS011;41612;51.994;5.880;2023-12-04T12:40:59;13.63;;;8.50;;
55710;SDS011;41612;51.994;5.880;2023-12-04T12:43:27;13.55;;;8.25;;
55710;SDS011;41612;51.994;5.880;2023-12-04T12:45:55;16.55;;;8.43;;
55710;SDS011;41612;51.994;5.880;2023-12-04T12:48:21;12.45;;;7.55;;
55710;SDS011;41612;51.994;5.880;2023-12-04T12:50:47;17.85;;;8.07;;
55710;SDS011;41612;51.994;5.880;2023-12-04T12:53:15;12.75;;;7.72;;
55710;SDS011;41612;51.994;5.880;2023-12-04T12:55:44;17.98;;;8.80;;
55710;SDS011;41612;51.994;5.880;2023-12-04T12:58:10;13.02;;;7.75;;
55710;SDS011;41612;51.994;5.880;2023-12-04T13:00:39;12.93;;;8.07;;
55710;SDS011;41612;51.994;5.880;2023-12-04T13:03:06;12.27;;;7.63;;
55710;SDS011;41612;51.994;5.880;2023-12-04T13:05:42;17.23;;;9.13;;
55710;SDS011;41612;51.994;5.880;2023-12-04T13:08:07;13.07;;;7.80;;
55710;SDS011;41612;51.994;5.880;2023-12-04T13:10:33;14.63;;;8.75;;
55710;SDS011;41612;51.994;5.880;2023-12-04T13:13:03;11.02;;;6.50;;
55710;SDS011;41612;51.994;5.880;2023-12-04T13:15:36;12.82;;;8.27;;
55710;SDS011;41612;51.994;5.880;2023-12-04T13:18:05;15.45;;;8.48;;
55710;SDS011;41612;51.994;5.880;2023-12-04T13:20:31;12.52;;;7.95;;
55710;SDS011;41612;51.994;5.880;2023-12-04T13:22:57;16.02;;;8.23;;
55710;SDS011;41612;51.994;5.880;2023-12-04T13:25:25;14.00;;;7.65;;
55710;SDS011;41612;51.994;5.880;2023-12-04T13:27:54;15.40;;;8.73;;
55710;SDS011;41612;51.994;5.880;2023-12-04T13:30:23;19.13;;;8.98;;
55710;SDS011;41612;51.994;5.880;2023-12-04T13:35:26;15.30;;;8.88;;
55710;SDS011;41612;51.994;5.880;2023-12-04T13:38:00;13.48;;;8.80;;
55710;SDS011;41612;51.994;5.880;2023-12-04T13:40:26;14.02;;;8.32;;
55710;SDS011;41612;51.994;5.880;2023-12-04T13:42:57;18.17;;;8.48;;
55710;SDS011;41612;51.994;5.880;2023-12-04T13:45:42;13.48;;;8.23;;
55710;SDS011;41612;51.994;5.880;2023-12-04T13:48:08;11.13;;;8.32;;
55710;SDS011;41612;51.994;5.880;2023-12-04T13:50:34;15.68;;;8.15;;
55710;SDS011;41612;51.994;5.880;2023-12-04T13:52:59;16.52;;;9.50;;
55710;SDS011;41612;51.994;5.880;2023-12-04T13:55:26;15.40;;;9.05;;
55710;SDS011;41612;51.994;5.880;2023-12-04T13:58:10;16.58;;;8.57;;
55710;SDS011;41612;51.994;5.880;2023-12-04T14:00:56;15.73;;;8.90;;
55710;SDS011;41612;51.994;5.880;2023-12-04T14:03:21;14.02;;;9.00;;
55710;SDS011;41612;51.994;5.880;2023-12-04T14:05:50;12.77;;;8.07;;
55710;SDS011;41612;51.994;5.880;2023-12-04T14:08:21;16.85;;;9.02;;
55710;SDS011;41612;51.994;5.880;2023-12-04T14:10:56;14.57;;;8.98;;
55710;SDS011;41612;51.994;5.880;2023-12-04T14:22:48;13.93;;;9.25;;
55710;SDS011;41612;51.994;5.880;2023-12-04T14:25:41;17.92;;;9.43;;
55710;SDS011;41612;51.994;5.880;2023-12-04T14:28:25;16.63;;;9.07;;
55710;SDS011;41612;51.994;5.880;2023-12-04T14:31:05;14.20;;;9.30;;
55710;SDS011;41612;51.994;5.880;2023-12-04T14:33:32;15.13;;;8.52;;
55710;SDS011;41612;51.994;5.880;2023-12-04T14:36:00;16.10;;;9.63;;
55710;SDS011;41612;51.994;5.880;2023-12-04T14:38:34;19.42;;;10.93;;
55710;SDS011;41612;51.994;5.880;2023-12-04T14:41:10;16.13;;;9.18;;
55710;SDS011;41612;51.994;5.880;2023-12-04T14:43:44;16.15;;;9.85;;
55710;SDS011;41612;51.994;5.880;2023-12-04T14:46:24;15.20;;;9.00;;
55710;SDS011;41612;51.994;5.880;2023-12-04T14:49:00;18.15;;;10.27;;
55710;SDS011;41612;51.994;5.880;2023-12-04T14:51:27;16.50;;;10.15;;
55710;SDS011;41612;51.994;5.880;2023-12-04T14:53:55;18.23;;;10.77;;
55710;SDS011;41612;51.994;5.880;2023-12-04T14:56:47;17.50;;;10.23;;
55710;SDS011;41612;51.994;5.880;2023-12-04T14:59:43;15.45;;;9.50;;
55710;SDS011;41612;51.994;5.880;2023-12-04T15:02:47;16.33;;;10.38;;
55710;SDS011;41612;51.994;5.880;2023-12-04T15:05:32;13.90;;;8.52;;
55710;SDS011;41612;51.994;5.880;2023-12-04T15:08:03;18.38;;;11.60;;
55710;SDS011;41612;51.994;5.880;2023-12-04T15:10:40;17.70;;;10.32;;
55710;SDS011;41612;51.994;5.880;2023-12-04T15:13:25;18.80;;;9.88;;
55710;SDS011;41612;51.994;5.880;2023-12-04T15:16:19;16.98;;;10.77;;
55710;SDS011;41612;51.994;5.880;2023-12-04T15:18:45;22.40;;;12.63;;
55710;SDS011;41612;51.994;5.880;2023-12-04T15:21:25;15.93;;;9.52;;
55710;SDS011;41612;51.994;5.880;2023-12-04T15:23:52;19.08;;;11.02;;
55710;SDS011;41612;51.994;5.880;2023-12-04T15:26:17;18.60;;;10.50;;
55710;SDS011;41612;51.994;5.880;2023-12-04T15:28:43;16.25;;;9.57;;
55710;SDS011;41612;51.994;5.880;2023-12-04T15:31:09;17.42;;;9.95;;
55710;SDS011;41612;51.994;5.880;2023-12-04T15:33:35;19.55;;;10.82;;
55710;SDS011;41612;51.994;5.880;2023-12-04T15:36:01;21.40;;;10.82;;
55710;SDS011;41612;51.994;5.880;2023-12-04T15:38:27;16.02;;;10.73;;
55710;SDS011;41612;51.994;5.880;2023-12-04T15:40:54;15.68;;;9.93;;
55710;SDS011;41612;51.994;5.880;2023-12-04T15:43:24;19.58;;;10.98;;
55710;SDS011;41612;51.994;5.880;2023-12-04T15:45:50;19.95;;;11.20;;
55710;SDS011;41612;51.994;5.880;2023-12-04T15:48:16;18.13;;;12.07;;
55710;SDS011;41612;51.994;5.880;2023-12-04T15:50:41;18.17;;;10.43;;
55710;SDS011;41612;51.994;5.880;2023-12-04T15:53:08;17.42;;;11.38;;
55710;SDS011;41612;51.994;5.880;2023-12-04T15:55:33;18.42;;;10.98;;
55710;SDS011;41612;51.994;5.880;2023-12-04T15:57:59;18.08;;;10.52;;
55710;SDS011;41612;51.994;5.880;2023-12-04T16:00:25;17.60;;;10.65;;
55710;SDS011;41612;51.994;5.880;2023-12-04T16:02:51;21.52;;;11.27;;
55710;SDS011;41612;51.994;5.880;2023-12-04T16:05:17;17.27;;;10.30;;
55710;SDS011;41612;51.994;5.880;2023-12-04T16:07:42;18.75;;;10.75;;
55710;SDS011;41612;51.994;5.880;2023-12-04T16:10:09;18.00;;;10.55;;
55710;SDS011;41612;51.994;5.880;2023-12-04T16:12:35;17.80;;;10.63;;
55710;SDS011;41612;51.994;5.880;2023-12-04T16:15:02;16.60;;;9.65;;
55710;SDS011;41612;51.994;5.880;2023-12-04T16:17:32;17.02;;;11.07;;
55710;SDS011;41612;51.994;5.880;2023-12-04T16:19:59;17.40;;;11.23;;
55710;SDS011;41612;51.994;5.880;2023-12-04T16:22:27;17.33;;;10.98;;
55710;SDS011;41612;51.994;5.880;2023-12-04T16:24:53;16.88;;;10.57;;
55710;SDS011;41612;51.994;5.880;2023-12-04T16:27:18;21.42;;;12.65;;
55710;SDS011;41612;51.994;5.880;2023-12-04T16:29:44;21.70;;;12.77;;
55710;SDS011;41612;51.994;5.880;2023-12-04T16:32:10;23.63;;;14.30;;
55710;SDS011;41612;51.994;5.880;2023-12-04T16:34:40;18.27;;;12.10;;
55710;SDS011;41612;51.994;5.880;2023-12-04T16:37:18;22.85;;;14.23;;
55710;SDS011;41612;51.994;5.880;2023-12-04T16:40:40;25.17;;;15.13;;
55710;SDS011;41612;51.994;5.880;2023-12-04T17:16:57;25.92;;;14.77;;
55710;SDS011;41612;51.994;5.880;2023-12-04T17:44:39;21.17;;;13.30;;
55710;SDS011;41612;51.994;5.880;2023-12-04T17:47:08;22.08;;;13.40;;
55710;SDS011;41612;51.994;5.880;2023-12-04T17:49:37;26.42;;;14.07;;
55710;SDS011;41612;51.994;5.880;2023-12-04T17:52:06;18.90;;;11.73;;
55710;SDS011;41612;51.994;5.880;2023-12-04T17:54:37;19.77;;;12.65;;
55710;SDS011;41612;51.994;5.880;2023-12-04T17:57:04;39.65;;;21.95;;
55710;SDS011;41612;51.994;5.880;2023-12-04T17:59:34;52.42;;;28.60;;
55710;SDS011;41612;51.994;5.880;2023-12-04T18:02:01;23.40;;;13.18;;
55710;SDS011;41612;51.994;5.880;2023-12-04T18:04:34;24.20;;;15.40;;
55710;SDS011;41612;51.994;5.880;2023-12-04T18:07:03;24.40;;;15.20;;
55710;SDS011;41612;51.994;5.880;2023-12-04T18:09:30;25.65;;;16.05;;
55710;SDS011;41612;51.994;5.880;2023-12-04T18:12:02;25.63;;;16.48;;
55710;SDS011;41612;51.994;5.880;2023-12-04T18:14:28;25.80;;;14.35;;
55710;SDS011;41612;51.994;5.880;2023-12-04T18:16:57;26.05;;;18.27;;
55710;SDS011;41612;51.994;5.880;2023-12-04T18:19:23;23.70;;;16.55;;
55710;SDS011;41612;51.994;5.880;2023-12-04T18:21:49;18.55;;;12.30;;
55710;SDS011;41612;51.994;5.880;2023-12-04T18:24:16;23.88;;;15.77;;
55710;SDS011;41612;51.994;5.880;2023-12-04T18:26:44;24.75;;;16.65;;
55710;SDS011;41612;51.994;5.880;2023-12-04T18:29:10;28.35;;;19.80;;
55710;SDS011;41612;51.994;5.880;2023-12-04T18:31:36;24.67;;;17.33;;
55710;SDS011;41612;51.994;5.880;2023-12-04T18:34:02;27.35;;;18.48;;
55710;SDS011;41612;51.994;5.880;2023-12-04T18:36:33;28.73;;;19.90;;
55710;SDS011;41612;51.994;5.880;2023-12-04T18:39:05;26.60;;;16.52;;
55710;SDS011;41612;51.994;5.880;2023-12-04T18:41:31;24.63;;;16.02;;
55710;SDS011;41612;51.994;5.880;2023-12-04T18:43:58;28.02;;;17.52;;
55710;SDS011;41612;51.994;5.880;2023-12-04T18:46:24;26.58;;;17.58;;
55710;SDS011;41612;51.994;5.880;2023-12-04T18:48:53;28.90;;;19.10;;
55710;SDS011;41612;51.994;5.880;2023-12-04T18:51:20;27.83;;;18.98;;
55710;SDS011;41612;51.994;5.880;2023-12-04T18:53:46;28.10;;;19.88;;
55710;SDS011;41612;51.994;5.880;2023-12-04T18:56:21;23.80;;;16.05;;
55710;SDS011;41612;51.994;5.880;2023-12-04T18:58:47;24.67;;;16.77;;
55710;SDS011;41612;51.994;5.880;2023-12-04T19:01:15;21.90;;;15.85;;
55710;SDS011;41612;51.994;5.880;2023-12-04T19:03:40;27.92;;;19.10;;
55710;SDS011;41612;51.994;5.880;2023-12-04T19:06:06;27.75;;;18.95;;
55710;SDS011;41612;51.994;5.880;2023-12-04T19:09:16;23.63;;;17.17;;
55710;SDS011;41612;51.994;5.880;2023-12-04T19:12:01;28.23;;;18.00;;
55710;SDS011;41612;51.994;5.880;2023-12-04T19:14:52;23.67;;;16.00;;
55710;SDS011;41612;51.994;5.880;2023-12-04T19:17:36;26.00;;;16.60;;
55710;SDS011;41612;51.994;5.880;2023-12-04T19:20:18;27.48;;;19.38;;
55710;SDS011;41612;51.994;5.880;2023-12-04T19:22:43;29.92;;;17.88;;
55710;SDS011;41612;51.994;5.880;2023-12-04T21:55:35;33.33;;;21.95;;
55710;SDS011;41612;51.994;5.880;2023-12-04T21:58:01;33.20;;;22.75;;
55710;SDS011;41612;51.994;5.880;2023-12-04T22:03:52;34.20;;;23.15;;
55710;SDS011;41612;51.994;5.880;2023-12-04T22:11:42;20.33;;;14.65;;
55710;SDS011;41612;51.994;5.880;2023-12-04T22:18:02;27.70;;;18.88;;
55710;SDS011;41612;51.994;5.880;2023-12-04T22:34:14;31.08;;;19.10;;
55710;SDS011;41612;51.994;5.880;2023-12-04T22:37:50;32.17;;;19.42;;
55710;SDS011;41612;51.994;5.880;2023-12-04T22:44:47;27.17;;;18.52;;
55710;SDS011;41612;51.994;5.880;2023-12-04T23:07:47;14.82;;;10.57;;
55710;SDS011;41612;51.994;5.880;2023-12-04T23:10:57;22.10;;;15.05;;
55710;SDS011;41612;51.994;5.880;2023-12-04T23:24:29;15.48;;;9.75;;
55710;SDS011;41612;51.994;5.880;2023-12-04T23:26:56;14.73;;;10.13;;
55710;SDS011;41612;51.994;5.880;2023-12-04T23:29:22;15.05;;;9.65;;
55710;SDS011;41612;51.994;5.880;2023-12-04T23:31:48;32.55;;;21.02;;
55710;SDS011;41612;51.994;5.880;2023-12-04T23:34:13;26.52;;;16.58;;
55710;SDS011;41612;51.994;5.880;2023-12-04T23:36:39;17.20;;;12.15;;
55710;SDS011;41612;51.994;5.880;2023-12-04T23:39:05;25.98;;;16.15;;
55710;SDS011;41612;51.994;5.880;2023-12-04T23:41:31;22.83;;;17.00;;
55710;SDS011;41612;51.994;5.880;2023-12-04T23:43:56;21.13;;;15.73;;
55710;SDS011;41612;51.994;5.880;2023-12-04T23:46:22;11.93;;;8.80;;
55710;SDS011;41612;51.994;5.880;2023-12-04T23:48:47;11.18;;;8.30;;
55710;SDS011;41612;51.994;5.880;2023-12-04T23:51:13;13.77;;;9.80;;
55710;SDS011;41612;51.994;5.880;2023-12-04T23:53:39;16.15;;;11.55;;
55710;SDS011;41612;51.994;5.880;2023-12-04T23:56:04;23.38;;;15.57;;
55710;SDS011;41612;51.994;5.880;2023-12-04T23:58:30;24.23;;;16.30;;
